Time;durP1;ratioP1;P1;durP2;ratioP2;P2;SDS_P1;SDS_P2;PMS_P1;PMS_P2;Temp;Humidity;BMP_temperature;BMP_pressure;BME280_temperature;BME280_humidity;BME280_pressure;Samples;Min_cycle;Max_cycle;Signal;HPM_P1;HPM_P2
2022/07/01 00:02:26;;;;;;;;;;;15.70;99.90;;;;;;8375124;28;20279;-72
2022/07/01 00:06:27;;;;;;;;;;;15.70;99.90;;;;;;8373091;28;19921;-72
2022/07/01 00:10:29;;;;;;;;;;;15.70;99.90;;;;;;8361923;28;19939;-72
2022/07/01 00:14:31;;;;;;;;;;;15.60;99.90;;;;;;8359213;28;20295;-72
2022/07/01 00:18:33;;;;;;;;;;;15.60;99.90;;;;;;8382404;28;19920;-72
2022/07/01 00:22:35;;;;;;;;;;;15.60;99.90;;;;;;8352159;28;19966;-72
2022/07/01 00:26:36;;;;;;;;;;;15.60;99.90;;;;;;8371231;28;19930;-72
2022/07/01 00:30:38;;;;;;;;;;;15.60;99.90;;;;;;8374091;28;19924;-72
2022/07/01 00:34:40;;;;;;;;;;;15.60;99.90;;;;;;8385638;28;20324;-71
2022/07/01 00:38:41;;;;;;;;;;;15.50;99.90;;;;;;8400590;28;19946;-72
2022/07/01 00:42:43;;;;;;;;;;;15.40;99.90;;;;;;8365112;28;19928;-73
2022/07/01 00:46:46;;;;;;;;;;;15.40;99.90;;;;;;8380767;28;20289;-72
2022/07/01 00:50:48;;;;;;;;;;;15.40;99.90;;;;;;8380071;28;19921;-72
2022/07/01 00:54:50;;;;;;;;;;;15.40;99.90;;;;;;8377344;28;20316;-72
2022/07/01 00:58:52;;;;;;;;;;;15.30;99.90;;;;;;8366079;28;19945;-72
2022/07/01 01:02:54;;;;;;;;;;;15.20;99.90;;;;;;8371601;28;20412;-72
2022/07/01 01:06:56;;;;;;;;;;;15.20;99.90;;;;;;8361276;28;19921;-72
2022/07/01 01:10:58;;;;;;;;;;;15.20;99.90;;;;;;8388907;28;19928;-72
2022/07/01 01:14:59;;;;;;;;;;;15.20;99.90;;;;;;8376903;28;19921;-72
2022/07/01 01:19:04;;;;;;;;;;;15.20;99.90;;;;;;8380892;28;19928;-72
2022/07/01 01:23:06;;;;;;;;;;;15.20;99.90;;;;;;8368030;28;19920;-72
2022/07/01 01:27:08;;;;;;;;;;;15.10;99.90;;;;;;8376817;28;19932;-72
2022/07/01 01:31:10;;;;;;;;;;;15.10;99.90;;;;;;8378845;28;19920;-72
2022/07/01 01:35:13;;;;;;;;;;;15.10;99.90;;;;;;8357309;28;19932;-72
2022/07/01 01:43:16;;;;;;;;;;;15.10;99.90;;;;;;8381546;28;19920;-72
2022/07/01 01:47:18;;;;;;;;;;;15.10;99.90;;;;;;8371016;28;19927;-72
2022/07/01 01:51:20;;;;;;;;;;;15.10;99.90;;;;;;8373098;28;19924;-72
2022/07/01 01:55:22;;;;;;;;;;;15.00;99.90;;;;;;8369417;28;19962;-72
2022/07/01 01:59:23;;;;;;;;;;;15.00;99.90;;;;;;8378659;28;19927;-72
2022/07/01 02:03:25;;;;;;;;;;;15.00;99.90;;;;;;8364576;28;19932;-72
2022/07/01 02:07:27;;;;;;;;;;;15.00;99.90;;;;;;8372867;28;19981;-72
2022/07/01 02:11:29;;;;;;;;;;;14.90;99.90;;;;;;8367162;28;19925;-72
2022/07/01 02:15:30;;;;;;;;;;;14.90;99.90;;;;;;8377225;28;19920;-71
2022/07/01 02:19:32;;;;;;;;;;;14.80;99.90;;;;;;8394369;28;20383;-72
2022/07/01 02:23:34;;;;;;;;;;;14.80;99.90;;;;;;8379058;28;20366;-72
2022/07/01 02:27:36;;;;;;;;;;;14.80;99.90;;;;;;8382011;28;19920;-72
2022/07/01 02:31:38;;;;;;;;;;;14.80;99.90;;;;;;8381488;28;19920;-71
2022/07/01 02:35:40;;;;;;;;;;;14.70;99.90;;;;;;8381540;28;19932;-72
2022/07/01 02:39:44;;;;;;;;;;;14.70;99.90;;;;;;8372997;28;19920;-72
2022/07/01 02:43:45;;;;;;;;;;;14.70;99.90;;;;;;8367156;28;19931;-72
2022/07/01 02:47:47;;;;;;;;;;;14.70;99.90;;;;;;8370360;28;19920;-71
2022/07/01 02:51:49;;;;;;;;;;;14.60;99.90;;;;;;8386386;28;19927;-72
2022/07/01 02:55:51;;;;;;;;;;;14.60;99.90;;;;;;8396877;28;19921;-72
2022/07/01 02:59:53;;;;;;;;;;;14.50;99.90;;;;;;8374730;28;19935;-72
2022/07/01 03:03:54;;;;;;;;;;;14.50;99.90;;;;;;8387046;28;20330;-72
2022/07/01 03:07:56;;;;;;;;;;;14.50;99.90;;;;;;8392761;28;19921;-71
2022/07/01 03:11:58;;;;;;;;;;;14.50;99.90;;;;;;8373065;28;20283;-72
2022/07/01 03:15:59;;;;;;;;;;;14.50;99.90;;;;;;8386811;28;19920;-72
2022/07/01 03:20:02;;;;;;;;;;;14.40;99.90;;;;;;8380711;28;19928;-72
2022/07/01 03:24:03;;;;;;;;;;;14.40;99.90;;;;;;8372957;28;19943;-71
2022/07/01 03:28:05;;;;;;;;;;;14.40;99.90;;;;;;8353327;28;19947;-72
2022/07/01 03:32:09;;;;;;;;;;;14.40;99.90;;;;;;8390945;28;19920;-72
2022/07/01 03:36:10;;;;;;;;;;;14.40;99.90;;;;;;8370822;28;19920;-72
2022/07/01 03:40:12;;;;;;;;;;;14.50;99.90;;;;;;8379073;28;19920;-72
2022/07/01 03:44:14;;;;;;;;;;;14.50;99.90;;;;;;8387371;28;19925;-72
2022/07/01 03:48:16;;;;;;;;;;;14.50;99.90;;;;;;8375775;28;20383;-72
2022/07/01 03:52:17;;;;;;;;;;;14.50;99.90;;;;;;8361841;28;19920;-72
2022/07/01 03:56:19;;;;;;;;;;;14.50;99.90;;;;;;8366866;28;19928;-72
2022/07/01 04:00:21;;;;;;;;;;;14.50;99.90;;;;;;8372443;28;19921;-72
2022/07/01 04:04:24;;;;;;;;;;;14.50;99.90;;;;;;8379048;28;20338;-72
2022/07/01 04:08:26;;;;;;;;;;;14.50;99.90;;;;;;8379978;28;19939;-72
2022/07/01 04:12:27;;;;;;;;;;;14.40;99.90;;;;;;8374343;28;19924;-72
2022/07/01 04:16:30;;;;;;;;;;;14.40;99.90;;;;;;8379232;28;19921;-72
2022/07/01 04:20:31;;;;;;;;;;;14.40;99.90;;;;;;8377364;28;19928;-72
2022/07/01 04:24:33;;;;;;;;;;;14.40;99.90;;;;;;8373808;28;19927;-72
2022/07/01 04:28:35;;;;;;;;;;;14.30;99.90;;;;;;8376678;28;20005;-72
2022/07/01 04:32:37;;;;;;;;;;;14.30;99.90;;;;;;8376245;28;19935;-73
2022/07/01 04:36:39;;;;;;;;;;;14.30;99.90;;;;;;8366719;28;19928;-71
2022/07/01 04:41:58;;;;;;;;;;;14.30;99.90;;;;;;8376322;28;19920;-71
2022/07/01 04:45:03;;;;;;;;;;;14.30;99.90;;;;;;8372156;28;20350;-72
2022/07/01 04:49:04;;;;;;;;;;;14.30;99.90;;;;;;8382806;28;20373;-72
2022/07/01 04:53:06;;;;;;;;;;;14.30;99.90;;;;;;8404461;28;19927;-72
2022/07/01 04:57:08;;;;;;;;;;;14.30;99.90;;;;;;8354778;28;19936;-71
2022/07/01 05:01:09;;;;;;;;;;;14.30;99.90;;;;;;8347557;28;19989;-71
2022/07/01 05:05:11;;;;;;;;;;;14.40;99.90;;;;;;8351203;28;20024;-72
2022/07/01 05:09:13;;;;;;;;;;;14.40;99.90;;;;;;8361244;28;19920;-72
2022/07/01 05:13:14;;;;;;;;;;;14.40;99.90;;;;;;8346084;28;19955;-72
2022/07/01 05:17:16;;;;;;;;;;;14.40;99.90;;;;;;8377756;28;19924;-72
2022/07/01 05:25:38;;;;;;;;;;;14.40;99.90;;;;;;8377671;28;19927;-72
2022/07/01 05:29:40;;;;;;;;;;;14.40;99.90;;;;;;8365923;28;19928;-73
2022/07/01 05:33:42;;;;;;;;;;;14.40;99.90;;;;;;8359311;28;19924;-72
2022/07/01 05:37:43;;;;;;;;;;;14.40;99.90;;;;;;8361352;28;19924;-72
2022/07/01 05:41:45;;;;;;;;;;;14.40;99.90;;;;;;8371818;28;19921;-72
2022/07/01 05:45:47;;;;;;;;;;;14.40;99.90;;;;;;8362840;28;20329;-72
2022/07/01 05:49:49;;;;;;;;;;;14.40;99.90;;;;;;8364921;28;19931;-72
2022/07/01 05:53:52;;;;;;;;;;;14.50;99.90;;;;;;8362456;28;20280;-72
2022/07/01 05:57:54;;;;;;;;;;;14.50;99.90;;;;;;8370148;28;20417;-72
2022/07/01 06:01:55;;;;;;;;;;;14.50;99.90;;;;;;8387977;28;19924;-72
2022/07/01 06:05:57;;;;;;;;;;;14.60;99.90;;;;;;8380286;28;19943;-72
2022/07/01 06:09:59;;;;;;;;;;;14.60;99.90;;;;;;8358213;28;19924;-71
2022/07/01 06:14:00;;;;;;;;;;;14.70;99.90;;;;;;8370303;28;19931;-72
2022/07/01 06:18:02;;;;;;;;;;;14.70;99.90;;;;;;8379268;28;20383;-72
2022/07/01 06:22:04;;;;;;;;;;;14.70;99.90;;;;;;8373980;28;19932;-72
2022/07/01 06:26:05;;;;;;;;;;;14.80;99.90;;;;;;8360668;28;19940;-72
2022/07/01 06:30:08;;;;;;;;;;;14.80;99.90;;;;;;8351466;28;19925;-72
2022/07/01 06:34:09;;;;;;;;;;;15.00;99.90;;;;;;8354834;28;22126;-71
2022/07/01 06:38:11;;;;;;;;;;;15.00;99.90;;;;;;8351096;28;20287;-71
2022/07/01 06:42:13;;;;;;;;;;;15.10;99.90;;;;;;8368938;28;19929;-71
2022/07/01 06:46:14;;;;;;;;;;;15.10;99.90;;;;;;8382827;28;19924;-72
2022/07/01 07:00:24;;;;;;;;;;;15.20;99.90;;;;;;8356214;28;19948;-71
2022/07/01 07:14:33;;;;;;;;;;;15.60;99.90;;;;;;8358215;28;19929;-71
2022/07/01 07:18:35;;;;;;;;;;;15.80;99.90;;;;;;8344868;28;20387;-71
2022/07/01 07:22:36;;;;;;;;;;;15.90;99.90;;;;;;8354401;28;19940;-72
2022/07/01 07:26:38;;;;;;;;;;;15.90;99.90;;;;;;8360909;28;19925;-71
2022/07/01 07:30:40;;;;;;;;;;;15.90;99.90;;;;;;8346040;28;19937;-71
2022/07/01 07:34:41;;;;;;;;;;;16.00;99.90;;;;;;8352081;28;20002;-72
2022/07/01 07:38:43;;;;;;;;;;;16.10;99.90;;;;;;8348733;28;20383;-70
2022/07/01 07:42:46;;;;;;;;;;;16.30;99.90;;;;;;8352462;28;19943;-71
2022/07/01 07:46:48;;;;;;;;;;;16.30;99.90;;;;;;8352795;28;19974;-71
2022/07/01 07:50:50;;;;;;;;;;;16.30;99.90;;;;;;8356937;28;20016;-71
2022/07/01 07:54:51;;;;;;;;;;;16.40;99.90;;;;;;8355296;28;20024;-71
2022/07/01 07:58:53;;;;;;;;;;;16.40;99.90;;;;;;8347507;28;20162;-71
2022/07/01 08:02:55;;;;;;;;;;;16.50;99.90;;;;;;8374235;28;19928;-71
2022/07/01 08:06:56;;;;;;;;;;;16.50;99.90;;;;;;8374791;28;19932;-72
2022/07/01 08:10:58;;;;;;;;;;;16.70;99.90;;;;;;8365254;28;19925;-71
2022/07/01 08:15:00;;;;;;;;;;;16.80;99.90;;;;;;8365151;28;19925;-71
2022/07/01 08:19:02;;;;;;;;;;;16.70;99.90;;;;;;8360039;28;19924;-71
2022/07/01 08:23:04;;;;;;;;;;;16.80;99.90;;;;;;8359608;28;19977;-71
2022/07/01 08:27:06;;;;;;;;;;;16.80;99.90;;;;;;8359229;28;19931;-72
2022/07/01 08:31:07;;;;;;;;;;;16.70;99.90;;;;;;8380016;28;19933;-71
2022/07/01 08:35:09;;;;;;;;;;;16.60;99.90;;;;;;8360906;28;19933;-71
2022/07/01 08:39:11;;;;;;;;;;;16.70;99.90;;;;;;8360375;28;19929;-71
2022/07/01 08:43:12;;;;;;;;;;;16.80;99.90;;;;;;8361188;28;19939;-72
2022/07/01 08:47:14;;;;;;;;;;;16.90;99.90;;;;;;8357604;28;19936;-71
2022/07/01 08:51:16;;;;;;;;;;;17.10;99.90;;;;;;8363290;28;19937;-71
2022/07/01 08:55:18;;;;;;;;;;;17.20;99.90;;;;;;8378963;28;19968;-71
2022/07/01 08:59:25;;;;;;;;;;;17.30;99.90;;;;;;8356338;28;20395;-72
2022/07/01 09:03:27;;;;;;;;;;;17.50;99.90;;;;;;8358178;28;19933;-71
2022/07/01 09:07:35;;;;;;;;;;;17.50;99.90;;;;;;8364536;28;19963;-72
2022/07/01 09:11:55;;;;;;;;;;;17.50;99.90;;;;;;8361898;28;20318;-71
2022/07/01 09:15:57;;;;;;;;;;;17.40;99.90;;;;;;8368914;28;19924;-72
2022/07/01 09:19:59;;;;;;;;;;;17.40;99.90;;;;;;8355845;28;20249;-72
2022/07/01 09:24:05;;;;;;;;;;;17.50;99.90;;;;;;8358511;28;20264;-72
2022/07/01 09:28:27;;;;;;;;;;;17.60;99.90;;;;;;8363180;28;19925;-71
2022/07/01 09:32:29;;;;;;;;;;;17.70;99.90;;;;;;8364638;28;19928;-71
2022/07/01 09:36:31;;;;;;;;;;;17.70;99.90;;;;;;8359399;28;19960;-71
2022/07/01 09:40:52;;;;;;;;;;;17.70;99.90;;;;;;8354547;28;20372;-71
2022/07/01 09:45:07;;;;;;;;;;;17.80;99.90;;;;;;8367703;28;19925;-71
2022/07/01 09:49:09;;;;;;;;;;;17.80;99.90;;;;;;8361741;28;19932;-72
2022/07/01 09:53:10;;;;;;;;;;;17.90;99.90;;;;;;8364196;28;19944;-71
2022/07/01 09:57:13;;;;;;;;;;;17.90;99.90;;;;;;8366067;28;19929;-71
2022/07/01 10:01:15;;;;;;;;;;;17.90;99.90;;;;;;8359345;28;19936;-72
2022/07/01 10:05:19;;;;;;;;;;;17.90;99.90;;;;;;8363048;28;19929;-71
2022/07/01 10:09:26;;;;;;;;;;;17.90;99.90;;;;;;8362583;28;19932;-71
2022/07/01 10:13:31;;;;;;;;;;;18.00;99.90;;;;;;8360192;28;19947;-71
2022/07/01 10:17:40;;;;;;;;;;;18.10;99.90;;;;;;8366657;28;19936;-71
2022/07/01 10:21:41;;;;;;;;;;;18.20;99.90;;;;;;8363379;28;19963;-71
2022/07/01 10:25:44;;;;;;;;;;;18.30;99.90;;;;;;8373198;28;19924;-71
2022/07/01 10:29:47;;;;;;;;;;;18.40;99.90;;;;;;8368009;28;19928;-70
2022/07/01 10:33:49;;;;;;;;;;;18.40;99.90;;;;;;8361050;28;19925;-71
2022/07/01 10:37:56;;;;;;;;;;;18.50;99.90;;;;;;8365883;28;20391;-71
2022/07/01 10:41:59;;;;;;;;;;;18.60;99.90;;;;;;8364150;28;19940;-71
2022/07/01 10:46:44;;;;;;;;;;;18.70;99.90;;;;;;8370975;28;20071;-72
2022/07/01 10:50:46;;;;;;;;;;;18.70;99.90;;;;;;8368714;28;19959;-71
2022/07/01 10:54:52;;;;;;;;;;;18.70;99.90;;;;;;8356317;28;19968;-72
2022/07/01 10:59:00;;;;;;;;;;;18.80;99.90;;;;;;8368785;28;19928;-72
2022/07/01 11:03:22;;;;;;;;;;;18.80;99.90;;;;;;8365859;28;20461;-71
2022/07/01 11:07:25;;;;;;;;;;;18.80;99.90;;;;;;8362428;28;20382;-71
2022/07/01 11:11:27;;;;;;;;;;;18.90;99.90;;;;;;8367665;28;19939;-70
2022/07/01 11:15:29;;;;;;;;;;;18.90;99.90;;;;;;8363930;28;19929;-71
2022/07/01 11:19:31;;;;;;;;;;;18.90;99.90;;;;;;8365300;28;19928;-72
2022/07/01 11:23:33;;;;;;;;;;;19.00;99.90;;;;;;8353647;28;19932;-72
2022/07/01 11:27:44;;;;;;;;;;;19.10;99.90;;;;;;8367917;28;19970;-71
2022/07/01 11:31:46;;;;;;;;;;;19.10;99.90;;;;;;8369456;28;19939;-72
2022/07/01 11:40:09;;;;;;;;;;;19.20;99.90;;;;;;8359252;28;19925;-72
2022/07/01 11:44:11;;;;;;;;;;;19.30;99.90;;;;;;8368155;28;19929;-72
2022/07/01 11:48:27;;;;;;;;;;;19.30;99.90;;;;;;8376975;28;19944;-72
2022/07/01 11:52:29;;;;;;;;;;;19.30;99.90;;;;;;8366456;28;19924;-72
2022/07/01 11:56:38;;;;;;;;;;;19.40;99.90;;;;;;8364405;28;19932;-71
2022/07/01 12:00:40;;;;;;;;;;;19.40;99.90;;;;;;8364569;28;19932;-71
2022/07/01 12:04:42;;;;;;;;;;;19.50;99.90;;;;;;8366179;28;19925;-71
2022/07/01 12:08:44;;;;;;;;;;;19.50;99.90;;;;;;8372340;28;19948;-71
2022/07/01 12:12:46;;;;;;;;;;;19.50;99.90;;;;;;8364864;28;19935;-72
2022/07/01 12:16:50;;;;;;;;;;;19.60;99.90;;;;;;8360576;28;19960;-71
2022/07/01 12:20:53;;;;;;;;;;;19.60;99.90;;;;;;8369628;28;19936;-72
2022/07/01 12:25:08;;;;;;;;;;;19.70;99.90;;;;;;8366356;28;20544;-72
2022/07/01 12:29:09;;;;;;;;;;;19.70;99.90;;;;;;8364273;28;19925;-72
2022/07/01 12:33:11;;;;;;;;;;;19.80;99.90;;;;;;8358002;28;19940;-72
2022/07/01 12:37:14;;;;;;;;;;;19.80;99.90;;;;;;8373091;28;19940;-72
2022/07/01 12:41:35;;;;;;;;;;;19.80;99.90;;;;;;8366827;28;19932;-71
2022/07/01 12:45:40;;;;;;;;;;;19.80;99.90;;;;;;8362802;28;19931;-72
2022/07/01 12:49:41;;;;;;;;;;;19.90;99.90;;;;;;8365359;28;19978;-71
2022/07/01 12:53:43;;;;;;;;;;;20.00;99.90;;;;;;8354466;28;19944;-71
2022/07/01 12:57:51;;;;;;;;;;;19.90;99.90;;;;;;8367566;28;19933;-72
2022/07/01 13:01:53;;;;;;;;;;;19.80;99.90;;;;;;8365197;28;19929;-72
2022/07/01 13:05:55;;;;;;;;;;;19.70;99.90;;;;;;8363612;28;20455;-71
2022/07/01 13:09:57;;;;;;;;;;;19.70;99.90;;;;;;8343951;28;19925;-72
2022/07/01 13:13:59;;;;;;;;;;;19.50;99.90;;;;;;8356987;28;19946;-71
2022/07/01 13:18:01;;;;;;;;;;;19.40;99.90;;;;;;8357500;28;20245;-71
2022/07/01 13:22:03;;;;;;;;;;;19.30;99.90;;;;;;8360530;28;19931;-71
2022/07/01 13:26:05;;;;;;;;;;;19.30;99.90;;;;;;8364837;28;19948;-71
2022/07/01 13:30:08;;;;;;;;;;;19.20;99.90;;;;;;8360964;28;19931;-71
2022/07/01 13:34:09;;;;;;;;;;;19.10;99.90;;;;;;8360143;28;19925;-71
2022/07/01 13:38:11;;;;;;;;;;;19.10;99.90;;;;;;8356408;28;19924;-71
2022/07/01 13:42:13;;;;;;;;;;;19.10;99.90;;;;;;8355988;28;20047;-71
2022/07/01 13:46:14;;;;;;;;;;;19.10;99.90;;;;;;8355859;28;19931;-71
2022/07/01 13:50:18;;;;;;;;;;;19.30;99.90;;;;;;8376152;28;20368;-72
2022/07/01 13:54:20;;;;;;;;;;;19.50;99.90;;;;;;8374113;28;19924;-72
2022/07/01 13:58:22;;;;;;;;;;;19.60;99.90;;;;;;8374599;28;20214;-72
2022/07/01 14:02:24;;;;;;;;;;;19.70;99.90;;;;;;8355411;28;20402;-71
2022/07/01 14:06:26;;;;;;;;;;;19.50;99.90;;;;;;8360887;28;20351;-71
2022/07/01 14:10:28;;;;;;;;;;;19.40;99.90;;;;;;8359392;28;19951;-71
2022/07/01 14:14:30;;;;;;;;;;;19.30;99.90;;;;;;8352895;28;19929;-71
2022/07/01 14:18:32;;;;;;;;;;;19.20;99.90;;;;;;8367385;28;19961;-72
2022/07/01 14:22:34;;;;;;;;;;;19.20;99.90;;;;;;8353093;28;20062;-72
2022/07/01 14:26:36;;;;;;;;;;;19.20;99.90;;;;;;8369419;28;19951;-71
2022/07/01 14:30:37;;;;;;;;;;;19.20;99.90;;;;;;8358564;28;19932;-72
2022/07/01 14:34:39;;;;;;;;;;;19.30;99.90;;;;;;8354195;28;19995;-71
2022/07/01 14:38:41;;;;;;;;;;;19.30;99.90;;;;;;8358533;28;19924;-72
2022/07/01 14:42:43;;;;;;;;;;;19.20;99.90;;;;;;8356463;28;19929;-71
2022/07/01 14:46:45;;;;;;;;;;;19.10;99.90;;;;;;8355094;28;19924;-72
2022/07/01 14:50:46;;;;;;;;;;;19.10;99.90;;;;;;8353350;28;19933;-71
2022/07/01 14:54:49;;;;;;;;;;;19.00;99.90;;;;;;8351726;28;19980;-72
2022/07/01 14:58:51;;;;;;;;;;;18.90;99.90;;;;;;8334147;28;20340;-71
2022/07/01 15:02:55;;;;;;;;;;;19.00;99.90;;;;;;8355136;28;20050;-72
2022/07/01 15:06:57;;;;;;;;;;;19.10;99.90;;;;;;8361178;28;19936;-71
2022/07/01 15:11:04;;;;;;;;;;;19.10;99.90;;;;;;8355340;28;19931;-72
2022/07/01 15:15:07;;;;;;;;;;;19.20;99.90;;;;;;8354989;28;19955;-72
2022/07/01 15:19:09;;;;;;;;;;;19.30;99.90;;;;;;8357663;28;19924;-72
2022/07/01 15:23:11;;;;;;;;;;;19.30;99.90;;;;;;8333886;28;19941;-71
2022/07/01 15:27:12;;;;;;;;;;;19.50;99.90;;;;;;8357142;28;20276;-72
2022/07/01 15:31:14;;;;;;;;;;;19.50;99.90;;;;;;8337971;28;19925;-72
2022/07/01 15:35:36;;;;;;;;;;;19.60;99.90;;;;;;8357244;28;20035;-72
2022/07/01 15:39:37;;;;;;;;;;;19.70;99.90;;;;;;8350767;28;19935;-73
2022/07/01 15:43:39;;;;;;;;;;;19.80;99.90;;;;;;8356802;28;20508;-71
2022/07/01 15:52:01;;;;;;;;;;;19.80;99.90;;;;;;8355436;28;19932;-71
2022/07/01 15:56:03;;;;;;;;;;;20.00;99.90;;;;;;8356352;28;19932;-71
2022/07/01 16:00:05;;;;;;;;;;;20.20;99.90;;;;;;8340887;28;19931;-71
2022/07/01 16:04:07;;;;;;;;;;;20.30;99.90;;;;;;8328118;28;19936;-72
2022/07/01 16:08:11;;;;;;;;;;;20.40;99.90;;;;;;8328564;28;19948;-71
2022/07/01 16:12:12;;;;;;;;;;;21.00;99.90;;;;;;8324191;28;19932;-72
2022/07/01 16:16:21;;;;;;;;;;;21.40;99.90;;;;;;8352901;28;20392;-72
2022/07/01 16:20:24;;;;;;;;;;;21.40;99.90;;;;;;8321612;28;20376;-71
2022/07/01 16:24:25;;;;;;;;;;;20.90;99.90;;;;;;8322579;28;19936;-72
2022/07/01 16:28:28;;;;;;;;;;;20.50;99.90;;;;;;8323490;28;20396;-71
2022/07/01 16:32:32;;;;;;;;;;;20.20;99.90;;;;;;8322967;28;19932;-72
2022/07/01 16:36:36;;;;;;;;;;;19.80;99.90;;;;;;8317477;28;19948;-72
2022/07/01 16:40:38;;;;;;;;;;;19.60;99.90;;;;;;8321037;28;19933;-71
2022/07/01 16:44:44;;;;;;;;;;;19.60;99.90;;;;;;8321922;28;19932;-72
2022/07/01 16:48:48;;;;;;;;;;;20.30;99.90;;;;;;8335783;28;19929;-71
2022/07/01 16:52:52;;;;;;;;;;;21.20;99.90;;;;;;8326593;28;19929;-72
2022/07/01 16:56:55;;;;;;;;;;;21.90;99.90;;;;;;8321219;28;19929;-71
2022/07/01 17:00:57;;;;;;;;;;;22.50;99.90;;;;;;8342724;28;19932;-72
2022/07/01 17:05:01;;;;;;;;;;;22.70;99.90;;;;;;8352030;28;19928;-72
2022/07/01 17:09:03;;;;;;;;;;;22.60;99.90;;;;;;8353270;28;19924;-71
2022/07/01 17:13:06;;;;;;;;;;;22.10;99.90;;;;;;8337972;28;19925;-72
2022/07/01 17:17:08;;;;;;;;;;;21.70;99.90;;;;;;8355284;28;19929;-71
2022/07/01 17:21:10;;;;;;;;;;;21.60;99.90;;;;;;8353391;28;20265;-71
2022/07/01 17:25:16;;;;;;;;;;;21.60;99.90;;;;;;8355187;28;19928;-71
2022/07/01 17:29:19;;;;;;;;;;;21.30;99.90;;;;;;8354150;28;19932;-71
2022/07/01 17:33:23;;;;;;;;;;;20.90;99.90;;;;;;8331362;28;20330;-71
2022/07/01 17:37:26;;;;;;;;;;;20.50;99.90;;;;;;8351343;28;19928;-71
2022/07/01 17:41:41;;;;;;;;;;;20.30;99.90;;;;;;8352372;28;20369;-71
2022/07/01 17:55:50;;;;;;;;;;;20.00;99.90;;;;;;8355165;28;19923;-71
2022/07/01 18:04:59;;;;;;;;;;;19.80;99.90;;;;;;8346248;28;19966;-71
2022/07/01 18:09:02;;;;;;;;;;;19.80;99.90;;;;;;8353078;28;20295;-71
2022/07/01 18:13:05;;;;;;;;;;;19.80;99.90;;;;;;8365095;28;19959;-71
2022/07/01 18:17:16;;;;;;;;;;;19.80;99.90;;;;;;8350650;28;19932;-71
2022/07/01 18:21:19;;;;;;;;;;;19.70;99.90;;;;;;8353680;28;19933;-71
2022/07/01 18:25:22;;;;;;;;;;;19.70;99.90;;;;;;8353681;28;20380;-71
2022/07/01 18:29:26;;;;;;;;;;;19.70;99.90;;;;;;8337631;28;19932;-71
2022/07/01 18:33:29;;;;;;;;;;;19.60;99.90;;;;;;8354018;28;19936;-71
2022/07/01 18:37:40;;;;;;;;;;;19.70;99.90;;;;;;8355089;28;19936;-71
2022/07/01 18:41:41;;;;;;;;;;;19.70;99.90;;;;;;8356020;28;19925;-71
2022/07/01 18:45:43;;;;;;;;;;;19.60;99.90;;;;;;8358648;28;19936;-71
2022/07/01 18:49:45;;;;;;;;;;;19.60;99.90;;;;;;8353793;28;19936;-71
2022/07/01 18:53:46;;;;;;;;;;;19.50;99.90;;;;;;8356992;28;19940;-71
2022/07/01 18:57:49;;;;;;;;;;;19.50;99.90;;;;;;8357726;28;19928;-71
2022/07/01 19:02:15;;;;;;;;;;;19.40;99.90;;;;;;8349030;28;19924;-71
2022/07/01 19:06:17;;;;;;;;;;;19.30;99.90;;;;;;8328829;28;19932;-71
2022/07/01 19:10:19;;;;;;;;;;;19.20;99.90;;;;;;8291613;28;19929;-71
2022/07/01 19:14:20;;;;;;;;;;;19.20;99.90;;;;;;8296197;28;19929;-71
2022/07/01 19:18:22;;;;;;;;;;;19.20;99.90;;;;;;8293191;28;19930;-71
2022/07/01 19:22:24;;;;;;;;;;;19.10;99.90;;;;;;8291178;28;19925;-71
2022/07/01 19:26:27;;;;;;;;;;;19.10;99.90;;;;;;8300913;28;19937;-71
2022/07/01 19:30:28;;;;;;;;;;;19.10;99.90;;;;;;8293759;28;19939;-71
2022/07/01 19:34:30;;;;;;;;;;;19.00;99.90;;;;;;8323315;28;19929;-71
2022/07/01 19:38:32;;;;;;;;;;;19.00;99.90;;;;;;8284625;28;19983;-71
2022/07/01 19:42:33;;;;;;;;;;;19.00;99.90;;;;;;8291377;28;19925;-71
2022/07/01 19:46:35;;;;;;;;;;;18.90;99.90;;;;;;8291458;28;19928;-71
2022/07/01 19:50:37;;;;;;;;;;;18.80;99.90;;;;;;8287273;28;20029;-72
2022/07/01 19:54:39;;;;;;;;;;;18.90;99.90;;;;;;8289939;28;19929;-71
2022/07/01 19:58:41;;;;;;;;;;;18.80;99.90;;;;;;8287432;28;19925;-71
2022/07/01 20:02:43;;;;;;;;;;;18.70;99.90;;;;;;8294596;28;20398;-71
2022/07/01 20:06:45;;;;;;;;;;;18.70;99.90;;;;;;8352868;28;19925;-71
2022/07/01 20:10:47;;;;;;;;;;;18.60;99.90;;;;;;8359291;28;19971;-71
2022/07/01 20:14:50;;;;;;;;;;;18.50;99.90;;;;;;8357797;28;20740;-71
2022/07/01 20:18:51;;;;;;;;;;;18.40;99.90;;;;;;8354833;28;20031;-71
2022/07/01 20:22:53;;;;;;;;;;;18.30;99.90;;;;;;8355499;28;19925;-71
2022/07/01 20:26:55;;;;;;;;;;;18.20;99.90;;;;;;8353828;28;19929;-71
2022/07/01 20:30:56;;;;;;;;;;;18.10;99.90;;;;;;8348567;28;19925;-71
2022/07/01 20:34:58;;;;;;;;;;;18.10;99.90;;;;;;8353953;28;20041;-71
2022/07/01 20:39:00;;;;;;;;;;;17.90;99.90;;;;;;8342198;28;19924;-71
2022/07/01 20:43:02;;;;;;;;;;;17.90;99.90;;;;;;8350273;28;19932;-71
2022/07/01 20:47:04;;;;;;;;;;;17.80;99.90;;;;;;8355274;28;19929;-71
2022/07/01 20:51:05;;;;;;;;;;;17.80;99.90;;;;;;8368155;28;20276;-71
2022/07/01 20:55:07;;;;;;;;;;;17.70;99.90;;;;;;8352495;28;19929;-71
2022/07/01 20:59:09;;;;;;;;;;;17.70;99.90;;;;;;8351549;28;19933;-72
2022/07/01 21:03:31;;;;;;;;;;;17.60;99.90;;;;;;8366190;28;20015;-71
2022/07/01 21:12:36;;;;;;;;;;;17.50;99.90;;;;;;8382904;28;19970;-71
2022/07/01 21:16:37;;;;;;;;;;;17.40;99.90;;;;;;8387955;28;19947;-71
2022/07/01 21:20:39;;;;;;;;;;;17.40;99.90;;;;;;8371632;28;19940;-71
2022/07/01 21:24:41;;;;;;;;;;;17.30;99.90;;;;;;8393381;28;19925;-71
2022/07/01 21:28:43;;;;;;;;;;;17.30;99.90;;;;;;8388469;28;19989;-71
2022/07/01 21:32:45;;;;;;;;;;;17.20;99.90;;;;;;8373581;28;19924;-71
2022/07/01 21:41:45;;;;;;;;;;;17.10;99.90;;;;;;8375888;28;20304;-71
2022/07/01 21:45:46;;;;;;;;;;;17.00;99.90;;;;;;8378668;28;19932;-71
2022/07/01 21:49:52;;;;;;;;;;;17.00;99.90;;;;;;8380098;28;19924;-71
2022/07/01 21:53:55;;;;;;;;;;;16.90;99.90;;;;;;8376416;28;20308;-71
2022/07/01 21:57:57;;;;;;;;;;;16.90;99.90;;;;;;8356179;28;20326;-71
2022/07/01 22:02:00;;;;;;;;;;;16.80;99.90;;;;;;8376998;28;19932;-71
2022/07/01 22:10:19;;;;;;;;;;;16.70;99.90;;;;;;8378078;28;19928;-71
2022/07/01 22:14:22;;;;;;;;;;;16.70;99.90;;;;;;8381430;28;19935;-71
2022/07/01 22:18:24;;;;;;;;;;;16.60;99.90;;;;;;8375696;28;19953;-71
2022/07/01 22:22:30;;;;;;;;;;;16.50;99.90;;;;;;8379896;28;20295;-71
2022/07/01 22:26:32;;;;;;;;;;;16.50;99.90;;;;;;8379793;28;19924;-71
2022/07/01 22:30:35;;;;;;;;;;;16.40;99.90;;;;;;8375096;28;19925;-70
2022/07/01 22:44:46;;;;;;;;;;;16.20;99.90;;;;;;8373374;28;19919;-71
2022/07/01 22:49:01;;;;;;;;;;;16.20;99.90;;;;;;8390325;28;19928;-71
2022/07/01 22:53:05;;;;;;;;;;;16.20;99.90;;;;;;8360199;28;19924;-71
2022/07/01 22:57:11;;;;;;;;;;;16.10;99.90;;;;;;8369913;28;20344;-71
2022/07/01 23:01:15;;;;;;;;;;;16.10;99.90;;;;;;8360870;28;19936;-71
2022/07/01 23:05:19;;;;;;;;;;;16.10;99.90;;;;;;8376951;28;20240;-71
2022/07/01 23:09:47;;;;;;;;;;;16.00;99.90;;;;;;8374541;28;19932;-71
2022/07/01 23:16:25;;;;;;;;;;;16.00;99.90;;;;;;8359003;28;19928;-71
2022/07/01 23:18:35;;;;;;;;;;;15.90;99.90;;;;;;8379299;28;19936;-71
2022/07/01 23:22:43;;;;;;;;;;;15.90;99.90;;;;;;8381482;28;20290;-71
2022/07/01 23:26:46;;;;;;;;;;;15.80;99.90;;;;;;8393093;28;19929;-71
2022/07/01 23:30:49;;;;;;;;;;;15.70;99.90;;;;;;8367765;28;19943;-70
2022/07/01 23:39:56;;;;;;;;;;;15.60;99.90;;;;;;8376471;28;20263;-71
2022/07/01 23:43:58;;;;;;;;;;;15.50;99.90;;;;;;8380130;28;19924;-71
2022/07/01 23:48:00;;;;;;;;;;;15.50;99.90;;;;;;8393629;28;19936;-71
2022/07/01 23:52:02;;;;;;;;;;;15.50;99.90;;;;;;8363777;28;20379;-71
2022/07/01 23:56:03;;;;;;;;;;;15.40;99.90;;;;;;8370926;28;22661;-70
